createdAt,value
2022-10-17T00:00:00.345Z,15.00
2022-10-17T00:02:28.817Z,15.00
2022-10-17T00:04:55.765Z,14.90
2022-10-17T00:07:22.904Z,15.00
2022-10-17T00:09:49.972Z,15.00
2022-10-17T00:12:16.920Z,15.10
2022-10-17T00:14:52.892Z,15.00
2022-10-17T00:17:19.997Z,14.90
2022-10-17T00:19:50.880Z,14.90
2022-10-17T00:22:17.961Z,14.90
2022-10-17T00:24:44.877Z,14.80
2022-10-17T00:27:11.982Z,14.80
2022-10-17T00:29:38.976Z,14.90
2022-10-17T00:32:08.329Z,14.80
2022-10-17T00:34:35.377Z,14.90
2022-10-17T00:37:03.650Z,14.80
2022-10-17T00:39:33.446Z,14.70
2022-10-17T00:42:11.150Z,14.70
2022-10-17T00:45:19.597Z,14.70
2022-10-17T00:47:55.260Z,14.80
2022-10-17T00:50:28.726Z,14.80
2022-10-17T00:53:01.919Z,14.70
2022-10-17T00:55:39.135Z,14.80
2022-10-17T00:58:07.103Z,14.80
2022-10-17T01:00:44.276Z,14.70
2022-10-17T01:03:20.256Z,14.80
2022-10-17T01:05:52.885Z,14.70
2022-10-17T01:08:24.611Z,14.70
2022-10-17T01:11:03.896Z,14.60
2022-10-17T01:13:39.130Z,14.70
2022-10-17T01:16:12.242Z,14.50
2022-10-17T01:18:57.963Z,14.50
2022-10-17T01:21:42.679Z,14.60
2022-10-17T01:24:48.182Z,14.60
2022-10-17T01:28:00.426Z,14.60
2022-10-17T01:31:06.315Z,14.40
2022-10-17T01:33:45.864Z,14.30
2022-10-17T01:36:27.679Z,14.50
2022-10-17T01:39:04.612Z,14.40
2022-10-17T01:41:41.523Z,14.50
2022-10-17T01:44:13.490Z,14.50
2022-10-17T01:46:49.880Z,14.50
2022-10-17T01:49:20.769Z,14.40
2022-10-17T01:51:53.923Z,14.40
2022-10-17T01:54:27.998Z,14.40
2022-10-17T01:57:01.514Z,14.40
2022-10-17T01:59:40.884Z,14.50
2022-10-17T02:02:10.486Z,14.50
2022-10-17T02:04:37.798Z,14.40
2022-10-17T02:07:09.788Z,14.40
2022-10-17T02:09:37.057Z,14.30
2022-10-17T02:12:32.198Z,14.30
2022-10-17T02:15:40.234Z,14.30
2022-10-17T02:18:23.513Z,14.20
2022-10-17T02:20:56.757Z,14.30
2022-10-17T02:23:38.567Z,14.40
2022-10-17T02:26:11.022Z,14.40
2022-10-17T02:28:46.623Z,14.30
2022-10-17T02:31:18.155Z,14.30
2022-10-17T02:33:52.723Z,14.30
2022-10-17T02:36:23.793Z,14.40
2022-10-17T02:38:55.178Z,14.40
2022-10-17T02:41:24.633Z,14.40
2022-10-17T02:43:54.386Z,14.40
2022-10-17T02:46:24.897Z,14.20
2022-10-17T02:49:01.456Z,14.20
2022-10-17T02:51:37.064Z,14.30
2022-10-17T02:54:13.085Z,14.30
2022-10-17T02:56:44.321Z,14.20
2022-10-17T02:59:17.908Z,14.00
2022-10-17T03:01:45.093Z,14.00
2022-10-17T03:04:25.673Z,14.10
2022-10-17T03:06:52.738Z,14.20
2022-10-17T03:09:22.846Z,14.10
2022-10-17T03:11:52.798Z,14.00
2022-10-17T03:14:19.840Z,14.10
2022-10-17T03:16:46.905Z,14.10
2022-10-17T03:19:16.966Z,14.10
2022-10-17T03:21:48.196Z,14.10
2022-10-17T03:24:15.475Z,14.10
2022-10-17T03:26:49.885Z,14.10
2022-10-17T03:29:16.867Z,14.10
2022-10-17T03:31:43.802Z,14.10
2022-10-17T03:34:10.705Z,14.10
2022-10-17T03:36:52.464Z,14.20
2022-10-17T03:39:22.649Z,14.20
2022-10-17T03:41:52.426Z,14.10
2022-10-17T03:44:19.548Z,14.10
2022-10-17T03:46:49.563Z,14.10
2022-10-17T03:49:16.432Z,14.10
2022-10-17T03:51:46.118Z,14.10
2022-10-17T03:54:15.434Z,14.10
2022-10-17T03:56:43.739Z,14.10
2022-10-17T03:59:17.610Z,14.10
2022-10-17T04:01:47.493Z,14.10
2022-10-17T04:04:17.623Z,14.00
2022-10-17T04:06:44.636Z,13.90
2022-10-17T04:09:11.724Z,14.00
2022-10-17T04:11:45.937Z,14.00
2022-10-17T04:14:15.746Z,13.80
2022-10-17T04:16:45.586Z,13.80
2022-10-17T04:19:13.867Z,13.90
2022-10-17T04:21:40.958Z,13.90
2022-10-17T04:24:11.978Z,13.90
2022-10-17T04:26:39.019Z,14.00
2022-10-17T04:29:07.437Z,14.00
2022-10-17T04:31:36.406Z,14.00
2022-10-17T04:34:03.466Z,14.00
2022-10-17T04:36:36.458Z,13.90
2022-10-17T04:39:09.570Z,13.90
2022-10-17T04:41:39.726Z,13.90
2022-10-17T04:44:10.573Z,13.90
2022-10-17T04:46:37.583Z,13.80
2022-10-17T04:49:04.749Z,13.80
2022-10-17T04:51:34.578Z,13.80
2022-10-17T04:54:03.936Z,13.80
2022-10-17T04:56:33.711Z,13.80
2022-10-17T04:59:00.725Z,13.70
2022-10-17T05:01:29.188Z,13.80
2022-10-17T05:03:56.232Z,13.80
2022-10-17T05:06:29.463Z,13.90
2022-10-17T05:08:57.817Z,14.00
2022-10-17T05:11:27.296Z,14.00
2022-10-17T05:14:02.710Z,14.00
2022-10-17T05:16:31.207Z,14.00
2022-10-17T05:19:01.439Z,13.80
2022-10-17T05:21:30.545Z,13.70
2022-10-17T05:23:57.874Z,13.70
2022-10-17T05:26:25.942Z,13.60
2022-10-17T05:28:59.835Z,13.60
2022-10-17T05:31:26.918Z,13.70
2022-10-17T05:33:55.887Z,13.70
2022-10-17T05:36:26.072Z,13.60
2022-10-17T05:38:55.602Z,13.70
2022-10-17T05:41:22.726Z,13.60
2022-10-17T05:43:50.297Z,13.60
2022-10-17T05:46:24.874Z,13.70
2022-10-17T05:49:14.764Z,13.70
2022-10-17T05:51:52.380Z,13.70
2022-10-17T05:54:19.420Z,13.60
2022-10-17T05:56:52.913Z,13.60
2022-10-17T05:59:19.971Z,13.70
2022-10-17T06:01:46.936Z,13.80
2022-10-17T06:04:15.538Z,13.70
2022-10-17T06:06:42.475Z,13.60
2022-10-17T06:09:10.050Z,13.60
2022-10-17T06:11:37.318Z,13.60
2022-10-17T06:14:04.663Z,13.60
2022-10-17T06:16:31.644Z,13.70
2022-10-17T06:18:58.538Z,13.70
2022-10-17T06:21:27.983Z,13.90
2022-10-17T06:23:54.956Z,13.70
2022-10-17T06:26:24.954Z,13.80
2022-10-17T06:28:58.165Z,13.80
2022-10-17T06:31:25.175Z,13.90
2022-10-17T06:33:55.064Z,13.90
2022-10-17T06:36:28.631Z,13.90
2022-10-17T06:39:00.739Z,13.90
2022-10-17T06:41:33.503Z,13.90
2022-10-17T06:44:00.549Z,14.10
2022-10-17T06:46:29.674Z,14.10
2022-10-17T06:48:59.533Z,14.10
2022-10-17T06:51:27.845Z,14.20
2022-10-17T06:53:54.821Z,14.20
2022-10-17T06:56:28.057Z,14.30
2022-10-17T06:58:55.283Z,14.30
2022-10-17T07:01:22.601Z,14.30
2022-10-17T07:03:52.821Z,14.30
2022-10-17T07:06:19.950Z,14.30
2022-10-17T07:08:56.191Z,14.30
2022-10-17T07:11:23.873Z,14.40
2022-10-17T07:13:54.050Z,14.40
2022-10-17T07:16:27.351Z,14.50
2022-10-17T07:18:55.326Z,14.60
2022-10-17T07:21:28.744Z,14.50
2022-10-17T07:23:57.055Z,14.60
2022-10-17T07:26:24.189Z,14.60
2022-10-17T07:28:55.902Z,14.70
2022-10-17T07:31:28.107Z,14.80
2022-10-17T07:33:55.028Z,14.80
2022-10-17T07:36:22.117Z,15.00
2022-10-17T07:38:54.264Z,15.00
2022-10-17T07:41:30.478Z,15.10
2022-10-17T07:44:00.405Z,15.10
2022-10-17T07:46:36.560Z,15.10
2022-10-17T07:49:09.014Z,15.30
2022-10-17T07:51:36.018Z,15.30
2022-10-17T07:54:05.104Z,15.40
2022-10-17T07:56:52.530Z,15.50
2022-10-17T07:59:22.530Z,15.50
2022-10-17T08:01:49.465Z,15.60
2022-10-17T08:04:26.264Z,15.60
2022-10-17T08:07:11.917Z,15.60
2022-10-17T08:09:48.721Z,15.70
2022-10-17T08:12:17.131Z,15.80
2022-10-17T08:14:50.143Z,15.80
2022-10-17T08:17:17.080Z,15.80
2022-10-17T08:19:44.012Z,15.80
2022-10-17T08:22:14.018Z,15.90
2022-10-17T08:24:42.747Z,16.00
2022-10-17T08:27:29.168Z,16.10
2022-10-17T08:29:58.683Z,16.10
2022-10-17T08:32:27.951Z,16.10
2022-10-17T08:34:58.262Z,16.20
2022-10-17T08:37:25.336Z,16.20
2022-10-17T08:39:52.255Z,16.20
2022-10-17T08:42:49.221Z,16.30
2022-10-17T08:45:25.602Z,16.30
2022-10-17T08:48:00.816Z,16.40
2022-10-17T08:50:35.779Z,16.40
2022-10-17T08:53:19.600Z,16.50
2022-10-17T08:55:48.891Z,16.50
2022-10-17T08:58:22.261Z,16.60
2022-10-17T09:01:03.018Z,16.50
2022-10-17T09:04:05.521Z,16.60
2022-10-17T09:06:44.875Z,16.60
2022-10-17T09:09:34.951Z,16.70
2022-10-17T09:12:17.852Z,16.80
2022-10-17T09:15:15.886Z,16.80
2022-10-17T09:17:52.581Z,16.90
2022-10-17T09:20:31.195Z,17.00
2022-10-17T09:23:05.312Z,17.10
2022-10-17T09:25:43.008Z,17.10
2022-10-17T09:28:16.711Z,17.20
2022-10-17T09:30:48.071Z,17.20
2022-10-17T09:33:34.914Z,17.30
2022-10-17T09:36:05.406Z,17.30
2022-10-17T09:38:40.724Z,17.40
2022-10-17T09:41:44.151Z,17.50
2022-10-17T09:44:17.806Z,17.70
2022-10-17T09:47:18.762Z,17.70
2022-10-17T09:49:48.431Z,17.80
2022-10-17T09:52:27.980Z,17.90
2022-10-17T09:55:00.397Z,18.00
2022-10-17T10:00:28.046Z,18.10
2022-10-17T10:03:14.708Z,18.10
2022-10-17T10:06:05.301Z,18.20
2022-10-17T10:08:58.670Z,18.30
2022-10-17T10:11:46.455Z,18.30
2022-10-17T10:14:22.806Z,18.50
2022-10-17T10:16:51.366Z,18.70
2022-10-17T10:19:33.395Z,18.80
2022-10-17T10:22:06.415Z,19.00
2022-10-17T10:24:36.334Z,19.10
2022-10-17T10:27:05.526Z,19.30
2022-10-17T10:29:42.614Z,19.30
2022-10-17T10:32:15.653Z,19.30
2022-10-17T10:34:50.765Z,19.20
2022-10-17T10:37:23.842Z,19.20
2022-10-17T10:39:53.419Z,19.10
2022-10-17T10:42:34.482Z,19.10
2022-10-17T10:45:29.700Z,19.10
2022-10-17T10:48:23.345Z,19.10
2022-10-17T10:51:01.811Z,19.10
2022-10-17T10:53:57.187Z,19.20
2022-10-17T10:56:33.441Z,19.20
2022-10-17T10:59:05.115Z,19.20
2022-10-17T11:01:45.540Z,19.10
2022-10-17T11:04:30.401Z,19.10
2022-10-17T11:07:16.771Z,19.10
2022-10-17T11:09:53.102Z,19.10
2022-10-17T11:12:24.979Z,19.10
2022-10-17T11:15:20.960Z,19.10
2022-10-17T11:17:57.670Z,19.10
2022-10-17T11:20:36.930Z,19.20
2022-10-17T11:23:22.370Z,19.20
2022-10-17T11:25:54.303Z,19.30
2022-10-17T11:28:31.136Z,19.30
2022-10-17T11:31:04.627Z,19.30
2022-10-17T11:33:50.818Z,19.40
2022-10-17T11:36:26.710Z,19.40
2022-10-17T11:39:02.219Z,19.40
2022-10-17T11:41:36.519Z,19.50
2022-10-17T11:44:17.288Z,19.60
2022-10-17T11:46:47.647Z,19.60
2022-10-17T11:49:21.938Z,19.70
2022-10-17T11:52:02.704Z,19.70
2022-10-17T11:54:37.857Z,19.80
2022-10-17T11:57:26.468Z,19.80
2022-10-17T12:00:18.693Z,19.70
2022-10-17T12:02:52.361Z,19.80
2022-10-17T12:05:26.327Z,19.80
2022-10-17T12:08:00.050Z,19.80
2022-10-17T12:10:43.569Z,19.80
2022-10-17T12:13:54.728Z,19.90
2022-10-17T12:16:48.808Z,20.00
2022-10-17T12:19:35.899Z,20.10
2022-10-17T12:22:23.827Z,20.10
2022-10-17T12:25:02.125Z,20.20
2022-10-17T12:27:47.294Z,20.20
2022-10-17T12:30:24.589Z,20.30
2022-10-17T12:33:15.189Z,20.30
2022-10-17T12:35:45.203Z,20.30
2022-10-17T12:38:27.458Z,20.30
2022-10-17T12:41:13.196Z,20.30
2022-10-17T12:43:59.482Z,20.40
2022-10-17T12:46:56.553Z,20.40
2022-10-17T12:49:43.833Z,20.40
2022-10-17T12:53:03.423Z,20.40
2022-10-17T12:55:30.575Z,20.40
2022-10-17T12:58:04.237Z,20.40
2022-10-17T13:00:49.845Z,20.40
2022-10-17T13:03:25.158Z,20.40
2022-10-17T13:05:54.710Z,20.40
2022-10-17T13:08:28.742Z,20.40
2022-10-17T13:10:58.734Z,20.40
2022-10-17T13:13:39.161Z,20.50
2022-10-17T13:16:32.994Z,20.60
2022-10-17T13:19:14.096Z,20.60
2022-10-17T13:21:56.210Z,20.70
2022-10-17T13:24:34.839Z,20.80
2022-10-17T13:27:02.707Z,20.90
2022-10-17T13:29:32.150Z,20.90
2022-10-17T13:32:10.276Z,20.90
2022-10-17T13:34:40.282Z,20.90
2022-10-17T13:37:13.046Z,20.90
2022-10-17T13:39:55.182Z,20.90
2022-10-17T13:42:26.286Z,20.90
2022-10-17T13:44:57.826Z,20.90
2022-10-17T13:47:29.566Z,20.90
2022-10-17T13:49:58.077Z,20.80
2022-10-17T13:52:29.330Z,20.90
2022-10-17T13:55:09.620Z,20.90
2022-10-17T13:57:45.824Z,20.90
2022-10-17T14:00:23.265Z,20.90
2022-10-17T14:02:54.836Z,20.90
2022-10-17T14:05:23.713Z,20.90
2022-10-17T14:08:13.513Z,20.90
2022-10-17T14:10:45.236Z,20.90
2022-10-17T14:13:23.058Z,20.90
2022-10-17T14:15:51.719Z,20.90
2022-10-17T14:18:24.711Z,20.80
2022-10-17T14:21:34.067Z,20.80
2022-10-17T14:23:48.473Z,20.80
2022-10-17T14:26:24.185Z,20.90
2022-10-17T14:29:05.988Z,20.90
2022-10-17T14:31:35.362Z,20.90
2022-10-17T14:34:05.327Z,21.00
2022-10-17T14:36:37.164Z,21.00
2022-10-17T14:39:16.114Z,21.00
2022-10-17T14:41:46.102Z,21.00
2022-10-17T14:44:28.986Z,21.00
2022-10-17T14:47:00.242Z,21.00
2022-10-17T14:49:35.799Z,21.00
2022-10-17T14:52:30.280Z,21.00
2022-10-17T14:55:19.511Z,21.00
2022-10-17T14:57:46.857Z,21.10
2022-10-17T15:00:19.489Z,21.10
2022-10-17T15:02:48.109Z,21.00
2022-10-17T15:05:16.799Z,21.10
2022-10-17T15:07:46.643Z,21.00
2022-10-17T15:10:33.135Z,21.00
2022-10-17T15:13:26.106Z,20.90
2022-10-17T15:15:52.464Z,20.90
2022-10-17T15:18:19.638Z,20.90
2022-10-17T15:21:04.554Z,20.90
2022-10-17T15:23:42.615Z,20.80
2022-10-17T15:26:15.879Z,20.80
2022-10-17T15:28:52.507Z,20.80
2022-10-17T15:31:22.308Z,20.80
2022-10-17T15:33:52.633Z,20.80
2022-10-17T15:36:26.709Z,20.80
2022-10-17T15:38:59.889Z,20.70
2022-10-17T15:41:28.857Z,20.70
2022-10-17T15:43:58.468Z,20.70
2022-10-17T15:46:28.263Z,20.70
2022-10-17T15:48:56.721Z,20.60
2022-10-17T15:51:25.054Z,20.60
2022-10-17T15:53:55.236Z,20.60
2022-10-17T15:56:30.789Z,20.50
2022-10-17T15:58:58.349Z,20.40
2022-10-17T16:01:28.670Z,20.40
2022-10-17T16:04:01.871Z,20.30
2022-10-17T16:06:30.385Z,20.30
2022-10-17T16:08:57.354Z,20.30
2022-10-17T16:11:31.189Z,20.30
2022-10-17T16:14:05.176Z,20.20
2022-10-17T16:16:44.527Z,20.10
2022-10-17T16:19:14.278Z,20.00
2022-10-17T16:21:42.676Z,19.90
2022-10-17T16:24:13.258Z,19.80
2022-10-17T16:26:40.670Z,19.70
2022-10-17T16:29:09.396Z,19.70
2022-10-17T16:31:45.673Z,19.60
2022-10-17T16:34:14.957Z,19.50
2022-10-17T16:36:46.138Z,19.40
2022-10-17T16:39:13.083Z,19.30
2022-10-17T16:41:40.440Z,19.30
2022-10-17T16:44:19.599Z,19.20
2022-10-17T16:46:47.171Z,19.20
2022-10-17T16:49:16.072Z,19.20
2022-10-17T16:51:43.036Z,19.10
2022-10-17T16:54:11.436Z,19.00
2022-10-17T16:56:38.368Z,19.00
2022-10-17T16:59:05.283Z,19.00
2022-10-17T17:01:32.419Z,19.10
2022-10-17T17:04:09.428Z,19.00
2022-10-17T17:06:39.501Z,18.90
2022-10-17T17:09:08.892Z,18.80
2022-10-17T17:11:37.728Z,18.80
2022-10-17T17:14:06.396Z,18.80
2022-10-17T17:16:34.903Z,18.70
2022-10-17T17:19:05.256Z,18.70
2022-10-17T17:21:33.255Z,18.70
2022-10-17T17:24:02.236Z,18.70
2022-10-17T17:26:31.627Z,18.60
2022-10-17T17:29:00.881Z,18.60
2022-10-17T17:31:30.248Z,18.50
2022-10-17T17:34:01.279Z,18.50
2022-10-17T17:36:30.866Z,18.50
2022-10-17T17:39:04.034Z,18.40
2022-10-17T17:41:31.794Z,18.40
2022-10-17T17:44:01.798Z,18.40
2022-10-17T17:46:32.843Z,18.40
2022-10-17T17:49:00.928Z,18.40
2022-10-17T17:51:29.407Z,18.40
2022-10-17T17:54:03.643Z,18.40
2022-10-17T17:56:30.604Z,18.30
2022-10-17T17:59:01.302Z,18.20
2022-10-17T18:01:40.339Z,18.00
2022-10-17T18:04:15.279Z,17.90
2022-10-17T18:06:45.088Z,17.80
2022-10-17T18:09:12.129Z,17.90
2022-10-17T18:11:39.403Z,18.00
2022-10-17T18:14:13.770Z,18.00
2022-10-17T18:16:44.616Z,18.10
2022-10-17T18:19:14.601Z,18.00
2022-10-17T18:21:44.762Z,18.00
2022-10-17T18:24:11.790Z,17.90
2022-10-17T18:26:44.702Z,17.80
2022-10-17T18:29:13.137Z,17.80
2022-10-17T18:31:40.315Z,17.80
2022-10-17T18:34:10.582Z,17.70
2022-10-17T18:36:38.058Z,17.70
2022-10-17T18:39:05.735Z,17.60
2022-10-17T18:41:33.776Z,17.60
2022-10-17T18:44:11.063Z,17.70
2022-10-17T18:46:42.678Z,17.70
2022-10-17T18:49:14.786Z,17.60
2022-10-17T18:51:42.538Z,17.50
2022-10-17T18:54:16.992Z,17.60
2022-10-17T18:56:47.356Z,17.50
2022-10-17T18:59:14.300Z,17.50
2022-10-17T19:01:43.505Z,17.50
2022-10-17T19:04:14.411Z,17.60
2022-10-17T19:06:42.367Z,17.70
2022-10-17T19:09:12.899Z,17.70
2022-10-17T19:11:40.474Z,17.70
2022-10-17T19:14:13.129Z,17.80
2022-10-17T19:16:44.653Z,17.60
2022-10-17T19:19:15.679Z,17.60
2022-10-17T19:21:43.543Z,17.70
2022-10-17T19:24:14.138Z,17.70
2022-10-17T19:26:42.658Z,17.60
2022-10-17T19:29:10.735Z,17.60
2022-10-17T19:31:37.730Z,17.50
2022-10-17T19:34:06.044Z,17.50
2022-10-17T19:36:37.763Z,17.50
2022-10-17T19:39:07.168Z,17.60
2022-10-17T19:41:39.183Z,17.70
2022-10-17T19:44:13.206Z,17.70
2022-10-17T19:46:40.317Z,17.70
2022-10-17T19:49:11.664Z,17.70
2022-10-17T19:51:39.303Z,17.70
2022-10-17T19:54:06.263Z,17.70
2022-10-17T19:56:38.373Z,17.60
2022-10-17T19:59:06.403Z,17.70
2022-10-17T20:01:36.333Z,17.70
2022-10-17T20:04:03.822Z,17.70
2022-10-17T20:06:32.415Z,17.80
2022-10-17T20:09:02.306Z,17.80
2022-10-17T20:11:33.005Z,17.80
2022-10-17T20:14:01.725Z,17.70
2022-10-17T20:16:35.007Z,17.60
2022-10-17T20:19:07.515Z,17.60
2022-10-17T20:21:39.266Z,17.60
2022-10-17T20:24:09.084Z,17.60
2022-10-17T20:26:38.591Z,17.60
2022-10-17T20:29:15.543Z,17.60
2022-10-17T20:31:46.737Z,17.70
2022-10-17T20:34:16.471Z,17.80
2022-10-17T20:36:44.785Z,17.80
2022-10-17T20:39:13.465Z,17.70
2022-10-17T20:41:40.892Z,17.60
2022-10-17T20:44:08.843Z,17.70
2022-10-17T20:46:37.875Z,17.60
2022-10-17T20:49:08.000Z,17.70
2022-10-17T20:51:35.351Z,17.80
2022-10-17T20:54:06.906Z,17.80
2022-10-17T20:56:35.383Z,17.90
2022-10-17T20:59:04.532Z,18.00
2022-10-17T21:01:34.065Z,18.00
2022-10-17T21:04:26.963Z,17.90
2022-10-17T21:06:54.439Z,17.90
2022-10-17T21:09:23.057Z,17.90
2022-10-17T21:11:54.242Z,17.90
2022-10-17T21:14:22.042Z,17.90
2022-10-17T21:16:49.287Z,17.80
2022-10-17T21:19:16.638Z,17.70
2022-10-17T21:21:45.882Z,17.70
2022-10-17T21:24:17.801Z,17.60
2022-10-17T21:26:47.994Z,17.60
2022-10-17T21:29:18.068Z,17.70
2022-10-17T21:31:47.687Z,17.70
2022-10-17T21:34:21.126Z,17.60
2022-10-17T21:36:48.233Z,17.50
2022-10-17T21:39:16.361Z,17.50
2022-10-17T21:41:48.731Z,17.50
2022-10-17T21:44:18.223Z,17.50
2022-10-17T21:46:46.319Z,17.50
2022-10-17T21:49:19.154Z,17.50
2022-10-17T21:51:47.571Z,17.60
2022-10-17T21:54:16.116Z,17.60
2022-10-17T21:56:43.601Z,17.50
2022-10-17T21:59:12.277Z,17.60
2022-10-17T22:01:46.280Z,17.60
2022-10-17T22:04:16.189Z,17.60
2022-10-17T22:06:48.262Z,17.60
2022-10-17T22:09:18.427Z,17.60
2022-10-17T22:11:47.690Z,17.60
2022-10-17T22:14:18.348Z,17.60
2022-10-17T22:16:46.742Z,17.70
2022-10-17T22:19:16.647Z,17.80
2022-10-17T22:21:43.556Z,17.90
2022-10-17T22:24:14.076Z,17.80
2022-10-17T22:26:41.887Z,17.70
2022-10-17T22:29:09.944Z,17.70
2022-10-17T22:31:41.583Z,17.80
2022-10-17T22:34:11.368Z,17.80
2022-10-17T22:36:38.440Z,17.70
2022-10-17T22:39:08.202Z,17.60
2022-10-17T22:41:35.597Z,17.60
2022-10-17T22:44:03.025Z,17.60
2022-10-17T22:46:30.022Z,17.60
2022-10-17T22:48:58.372Z,17.60
2022-10-17T22:51:25.436Z,17.60
2022-10-17T22:53:55.424Z,17.60
2022-10-17T22:56:23.604Z,17.60
2022-10-17T22:58:51.326Z,17.60
2022-10-17T23:01:21.506Z,17.60
2022-10-17T23:03:53.017Z,17.70
2022-10-17T23:06:21.916Z,17.60
2022-10-17T23:08:55.434Z,17.70
2022-10-17T23:11:22.562Z,17.60
2022-10-17T23:13:55.430Z,17.60
2022-10-17T23:16:25.497Z,17.60
2022-10-17T23:18:52.505Z,17.60
2022-10-17T23:21:20.718Z,17.50
2022-10-17T23:23:53.763Z,17.60
2022-10-17T23:26:26.458Z,17.60
2022-10-17T23:28:54.766Z,17.70
2022-10-17T23:31:22.798Z,17.80
2022-10-17T23:33:51.610Z,17.80
2022-10-17T23:36:21.550Z,17.70
2022-10-17T23:38:50.192Z,17.70
2022-10-17T23:41:23.067Z,17.60
2022-10-17T23:43:51.136Z,17.60
2022-10-17T23:46:20.917Z,17.60
2022-10-17T23:48:51.375Z,17.60
2022-10-17T23:51:18.411Z,17.70
2022-10-17T23:53:47.199Z,17.70
2022-10-17T23:56:20.120Z,17.80
2022-10-17T23:58:47.291Z,17.70
